Perdizes, Brazil
Current Conditions -  °F | °C
As of 4:00 AM on Wednesday 22 Oct 2014 (Local Time) from SBUR Reporting Station
Clear Clear  
Wind Chill: 70°   Ceiling: Unl
Heat Index: 70°   Visibility: 5mi
Dew Point: 61°   Wind: 5mph
Humidity: 73%   Direction: 70°ENE
Pressure: 30"   Gusts: NA
Location:  19.35°S, 47.29°W
Report Text: SBUR 220600Z 07004KT 8000 NSC 21/16 Q1016
Loading
Personal Weather Stations






























Interactive Weather Map
Tropical Storm Tracking
New forecast layout! Learn more

10-Day Weather Forecast

Advertisements
Track Severe Weather on mobile